sensor_id;sensor_type;location;lat;lon;timestamp;pressure;altitude;pressure_sealevel;temperature;humidity
52441;BME280;39611;46.062;8.950;2023-04-07T00:01:49;96392.06;;;7.45;45.92
52441;BME280;39611;46.062;8.950;2023-04-07T00:04:16;96396.16;;;7.26;44.68
52441;BME280;39611;46.062;8.950;2023-04-07T00:06:42;96402.00;;;7.33;45.63
52441;BME280;39611;46.062;8.950;2023-04-07T00:09:09;96400.38;;;7.27;45.91
52441;BME280;39611;46.062;8.950;2023-04-07T00:11:36;96389.03;;;7.26;45.68
52441;BME280;39611;46.062;8.950;2023-04-07T00:14:03;96386.66;;;7.19;45.16
52441;BME280;39611;46.062;8.950;2023-04-07T00:16:29;96395.41;;;7.30;46.55
52441;BME280;39611;46.062;8.950;2023-04-07T00:18:55;96387.44;;;7.20;44.61
52441;BME280;39611;46.062;8.950;2023-04-07T00:21:22;96391.44;;;7.28;44.75
52441;BME280;39611;46.062;8.950;2023-04-07T00:23:48;96391.50;;;7.38;45.19
52441;BME280;39611;46.062;8.950;2023-04-07T00:26:15;96387.97;;;7.22;45.45
52441;BME280;39611;46.062;8.950;2023-04-07T00:28:41;96393.81;;;7.29;44.19
52441;BME280;39611;46.062;8.950;2023-04-07T00:31:07;96390.41;;;7.34;46.00
52441;BME280;39611;46.062;8.950;2023-04-07T00:33:34;96392.41;;;7.16;46.69
52441;BME280;39611;46.062;8.950;2023-04-07T00:36:00;96393.06;;;6.96;46.60
52441;BME280;39611;46.062;8.950;2023-04-07T00:38:27;96391.00;;;7.04;46.75
52441;BME280;39611;46.062;8.950;2023-04-07T00:40:57;96385.94;;;6.97;45.91
52441;BME280;39611;46.062;8.950;2023-04-07T00:43:25;96372.88;;;7.07;46.23
52441;BME280;39611;46.062;8.950;2023-04-07T00:45:52;96388.03;;;6.95;48.25
52441;BME280;39611;46.062;8.950;2023-04-07T00:48:19;96390.88;;;6.88;47.72
52441;BME280;39611;46.062;8.950;2023-04-07T00:50:46;96374.41;;;6.98;46.98
52441;BME280;39611;46.062;8.950;2023-04-07T00:53:12;96373.59;;;6.97;44.96
52441;BME280;39611;46.062;8.950;2023-04-07T00:55:39;96372.91;;;7.12;45.63
52441;BME280;39611;46.062;8.950;2023-04-07T00:58:05;96362.91;;;7.09;47.19
52441;BME280;39611;46.062;8.950;2023-04-07T01:00:35;96356.50;;;7.00;46.33
52441;BME280;39611;46.062;8.950;2023-04-07T01:03:08;96354.97;;;7.04;46.16
52441;BME280;39611;46.062;8.950;2023-04-07T01:05:52;96347.84;;;6.99;45.70
52441;BME280;39611;46.062;8.950;2023-04-07T01:08:39;96349.72;;;7.04;44.66
52441;BME280;39611;46.062;8.950;2023-04-07T01:11:27;96348.84;;;6.93;47.55
52441;BME280;39611;46.062;8.950;2023-04-07T01:13:56;96347.00;;;6.94;47.26
52441;BME280;39611;46.062;8.950;2023-04-07T01:16:30;96346.84;;;7.06;47.04
52441;BME280;39611;46.062;8.950;2023-04-07T01:19:07;96350.00;;;7.08;46.42
52441;BME280;39611;46.062;8.950;2023-04-07T01:21:36;96341.28;;;7.02;46.56
52441;BME280;39611;46.062;8.950;2023-04-07T01:24:57;96336.94;;;6.81;45.51
52441;BME280;39611;46.062;8.950;2023-04-07T01:27:42;96341.72;;;6.89;46.61
52441;BME280;39611;46.062;8.950;2023-04-07T01:30:14;96348.47;;;6.79;46.84
52441;BME280;39611;46.062;8.950;2023-04-07T01:32:44;96346.38;;;6.82;45.68
52441;BME280;39611;46.062;8.950;2023-04-07T01:35:12;96349.03;;;6.82;47.00
52441;BME280;39611;46.062;8.950;2023-04-07T01:37:39;96346.31;;;6.71;48.50
52441;BME280;39611;46.062;8.950;2023-04-07T01:40:07;96349.31;;;6.53;48.07
52441;BME280;39611;46.062;8.950;2023-04-07T01:42:34;96350.91;;;6.54;47.09
52441;BME280;39611;46.062;8.950;2023-04-07T01:45:02;96347.38;;;6.70;48.97
52441;BME280;39611;46.062;8.950;2023-04-07T01:47:30;96345.00;;;6.74;48.23
52441;BME280;39611;46.062;8.950;2023-04-07T01:49:58;96345.38;;;6.83;48.12
52441;BME280;39611;46.062;8.950;2023-04-07T01:52:27;96337.50;;;6.88;47.96
52441;BME280;39611;46.062;8.950;2023-04-07T01:54:54;96344.28;;;6.78;48.01
52441;BME280;39611;46.062;8.950;2023-04-07T01:57:22;96340.63;;;6.85;47.78
52441;BME280;39611;46.062;8.950;2023-04-07T01:59:49;96341.09;;;6.76;48.13
52441;BME280;39611;46.062;8.950;2023-04-07T02:02:15;96344.28;;;6.78;48.38
52441;BME280;39611;46.062;8.950;2023-04-07T02:04:53;96343.25;;;6.85;46.81
52441;BME280;39611;46.062;8.950;2023-04-07T02:07:28;96343.47;;;6.78;47.54
52441;BME280;39611;46.062;8.950;2023-04-07T02:09:58;96347.50;;;6.59;48.01
52441;BME280;39611;46.062;8.950;2023-04-07T02:12:27;96354.69;;;6.68;48.07
52441;BME280;39611;46.062;8.950;2023-04-07T02:14:55;96342.94;;;6.76;48.26
52441;BME280;39611;46.062;8.950;2023-04-07T02:17:23;96350.00;;;6.70;48.35
52441;BME280;39611;46.062;8.950;2023-04-07T02:19:52;96351.28;;;6.68;47.36
52441;BME280;39611;46.062;8.950;2023-04-07T02:22:19;96350.78;;;6.71;46.72
52441;BME280;39611;46.062;8.950;2023-04-07T02:24:46;96357.38;;;6.73;49.14
52441;BME280;39611;46.062;8.950;2023-04-07T02:27:12;96355.53;;;6.74;49.22
52441;BME280;39611;46.062;8.950;2023-04-07T02:29:39;96358.13;;;6.69;48.77
52441;BME280;39611;46.062;8.950;2023-04-07T02:32:07;96362.22;;;6.54;47.16
52441;BME280;39611;46.062;8.950;2023-04-07T02:34:33;96361.72;;;6.57;47.54
52441;BME280;39611;46.062;8.950;2023-04-07T02:37:00;96353.09;;;6.62;47.71
52441;BME280;39611;46.062;8.950;2023-04-07T02:39:26;96358.56;;;6.61;47.50
52441;BME280;39611;46.062;8.950;2023-04-07T02:41:53;96356.53;;;6.68;46.64
52441;BME280;39611;46.062;8.950;2023-04-07T02:44:19;96358.50;;;6.83;46.34
52441;BME280;39611;46.062;8.950;2023-04-07T02:46:46;96345.97;;;6.95;47.43
52441;BME280;39611;46.062;8.950;2023-04-07T02:49:12;96348.84;;;6.93;48.20
52441;BME280;39611;46.062;8.950;2023-04-07T02:51:38;96344.91;;;6.91;48.86
52441;BME280;39611;46.062;8.950;2023-04-07T02:54:05;96336.22;;;6.90;48.36
52441;BME280;39611;46.062;8.950;2023-04-07T02:56:31;96339.91;;;6.94;48.32
52441;BME280;39611;46.062;8.950;2023-04-07T02:58:58;96332.81;;;6.95;46.66
52441;BME280;39611;46.062;8.950;2023-04-07T03:01:25;96337.25;;;6.89;48.74
52441;BME280;39611;46.062;8.950;2023-04-07T03:03:51;96336.72;;;6.92;47.36
52441;BME280;39611;46.062;8.950;2023-04-07T03:06:18;96342.22;;;6.86;48.48
52441;BME280;39611;46.062;8.950;2023-04-07T03:08:44;96342.34;;;6.69;48.73
52441;BME280;39611;46.062;8.950;2023-04-07T03:11:11;96333.34;;;6.60;49.37
52441;BME280;39611;46.062;8.950;2023-04-07T03:13:38;96330.44;;;6.61;49.69
52441;BME280;39611;46.062;8.950;2023-04-07T03:16:04;96342.06;;;6.65;50.74
52441;BME280;39611;46.062;8.950;2023-04-07T03:18:30;96339.91;;;6.57;51.13
52441;BME280;39611;46.062;8.950;2023-04-07T03:20:57;96333.41;;;6.65;50.50
52441;BME280;39611;46.062;8.950;2023-04-07T03:23:23;96343.59;;;6.61;51.08
52441;BME280;39611;46.062;8.950;2023-04-07T03:25:50;96340.13;;;6.55;50.73
52441;BME280;39611;46.062;8.950;2023-04-07T03:28:16;96340.41;;;6.54;50.83
52441;BME280;39611;46.062;8.950;2023-04-07T03:30:43;96332.94;;;6.46;50.61
52441;BME280;39611;46.062;8.950;2023-04-07T03:33:09;96330.22;;;6.30;50.69
52441;BME280;39611;46.062;8.950;2023-04-07T03:35:36;96327.66;;;6.41;50.24
52441;BME280;39611;46.062;8.950;2023-04-07T03:38:02;96330.38;;;6.51;51.01
52441;BME280;39611;46.062;8.950;2023-04-07T03:40:29;96324.38;;;6.55;50.50
52441;BME280;39611;46.062;8.950;2023-04-07T03:42:55;96326.44;;;6.53;50.76
52441;BME280;39611;46.062;8.950;2023-04-07T03:45:21;96325.53;;;6.38;50.94
52441;BME280;39611;46.062;8.950;2023-04-07T03:47:48;96326.03;;;6.34;50.40
52441;BME280;39611;46.062;8.950;2023-04-07T03:50:14;96328.41;;;6.36;51.59
52441;BME280;39611;46.062;8.950;2023-04-07T03:52:41;96331.75;;;6.26;51.77
52441;BME280;39611;46.062;8.950;2023-04-07T03:55:08;96322.81;;;6.27;51.68
52441;BME280;39611;46.062;8.950;2023-04-07T03:57:34;96322.22;;;6.20;52.74
52441;BME280;39611;46.062;8.950;2023-04-07T04:00:01;96320.69;;;6.24;52.05
52441;BME280;39611;46.062;8.950;2023-04-07T04:02:28;96321.19;;;6.21;53.25
52441;BME280;39611;46.062;8.950;2023-04-07T04:04:54;96317.91;;;6.09;53.01
52441;BME280;39611;46.062;8.950;2023-04-07T04:07:21;96318.22;;;6.12;52.99
52441;BME280;39611;46.062;8.950;2023-04-07T04:09:47;96317.97;;;6.14;54.08
52441;BME280;39611;46.062;8.950;2023-04-07T04:12:14;96309.28;;;6.13;53.83
52441;BME280;39611;46.062;8.950;2023-04-07T04:14:40;96313.50;;;6.15;54.07
52441;BME280;39611;46.062;8.950;2023-04-07T04:17:07;96312.09;;;6.07;53.91
52441;BME280;39611;46.062;8.950;2023-04-07T04:19:33;96317.34;;;6.07;51.82
52441;BME280;39611;46.062;8.950;2023-04-07T04:21:59;96311.88;;;6.08;51.43
52441;BME280;39611;46.062;8.950;2023-04-07T04:24:26;96310.28;;;6.07;51.00
52441;BME280;39611;46.062;8.950;2023-04-07T04:26:52;96301.38;;;6.08;50.89
52441;BME280;39611;46.062;8.950;2023-04-07T04:29:19;96302.16;;;6.09;50.65
52441;BME280;39611;46.062;8.950;2023-04-07T04:31:45;96296.75;;;6.21;49.45
52441;BME280;39611;46.062;8.950;2023-04-07T04:34:12;96299.94;;;6.23;51.21
52441;BME280;39611;46.062;8.950;2023-04-07T04:36:38;96298.28;;;6.17;51.54
52441;BME280;39611;46.062;8.950;2023-04-07T04:39:06;96297.41;;;6.06;52.48
52441;BME280;39611;46.062;8.950;2023-04-07T04:41:33;96297.94;;;6.08;52.41
52441;BME280;39611;46.062;8.950;2023-04-07T04:43:59;96298.50;;;6.10;53.15
52441;BME280;39611;46.062;8.950;2023-04-07T04:46:26;96309.06;;;6.15;53.69
52441;BME280;39611;46.062;8.950;2023-04-07T04:48:52;96301.59;;;6.07;53.15
52441;BME280;39611;46.062;8.950;2023-04-07T04:51:19;96305.16;;;5.96;51.52
52441;BME280;39611;46.062;8.950;2023-04-07T04:53:46;96305.81;;;6.08;51.43
52441;BME280;39611;46.062;8.950;2023-04-07T04:56:12;96312.59;;;6.04;54.04
52441;BME280;39611;46.062;8.950;2023-04-07T04:58:39;96305.72;;;5.98;53.10
52441;BME280;39611;46.062;8.950;2023-04-07T05:01:07;96312.06;;;6.02;50.52
52441;BME280;39611;46.062;8.950;2023-04-07T05:03:34;96310.47;;;6.01;49.25
52441;BME280;39611;46.062;8.950;2023-04-07T05:06:00;96306.31;;;6.05;48.37
52441;BME280;39611;46.062;8.950;2023-04-07T05:08:26;96312.16;;;6.12;48.30
52441;BME280;39611;46.062;8.950;2023-04-07T05:10:53;96307.94;;;6.11;48.25
52441;BME280;39611;46.062;8.950;2023-04-07T05:13:20;96307.53;;;6.24;49.27
52441;BME280;39611;46.062;8.950;2023-04-07T05:15:47;96310.97;;;6.25;50.30
52441;BME280;39611;46.062;8.950;2023-04-07T05:18:13;96308.28;;;6.20;51.39
52441;BME280;39611;46.062;8.950;2023-04-07T05:20:40;96306.91;;;6.12;52.89
52441;BME280;39611;46.062;8.950;2023-04-07T05:23:06;96309.78;;;6.10;53.66
52441;BME280;39611;46.062;8.950;2023-04-07T05:25:33;96299.84;;;5.90;52.93
52441;BME280;39611;46.062;8.950;2023-04-07T05:27:59;96306.84;;;6.07;51.07
52441;BME280;39611;46.062;8.950;2023-04-07T05:30:26;96316.28;;;6.03;51.91
52441;BME280;39611;46.062;8.950;2023-04-07T05:32:52;96318.41;;;6.06;51.38
52441;BME280;39611;46.062;8.950;2023-04-07T05:35:19;96322.47;;;6.19;51.92
52441;BME280;39611;46.062;8.950;2023-04-07T05:37:46;96316.47;;;6.23;53.97
52441;BME280;39611;46.062;8.950;2023-04-07T05:40:12;96324.88;;;6.20;54.99
52441;BME280;39611;46.062;8.950;2023-04-07T05:42:39;96320.28;;;6.38;53.13
52441;BME280;39611;46.062;8.950;2023-04-07T05:45:06;96324.50;;;6.39;52.33
52441;BME280;39611;46.062;8.950;2023-04-07T05:47:32;96318.97;;;6.40;52.07
52441;BME280;39611;46.062;8.950;2023-04-07T05:49:59;96317.69;;;6.43;51.92
52441;BME280;39611;46.062;8.950;2023-04-07T05:52:26;96308.50;;;6.45;52.12
52441;BME280;39611;46.062;8.950;2023-04-07T05:54:52;96317.72;;;6.48;49.80
52441;BME280;39611;46.062;8.950;2023-04-07T05:57:18;96312.84;;;6.56;48.59
52441;BME280;39611;46.062;8.950;2023-04-07T05:59:45;96314.16;;;6.59;53.85
52441;BME280;39611;46.062;8.950;2023-04-07T06:02:12;96318.09;;;6.56;55.22
52441;BME280;39611;46.062;8.950;2023-04-07T06:04:39;96312.56;;;6.58;54.29
52441;BME280;39611;46.062;8.950;2023-04-07T06:07:06;96316.84;;;6.64;56.26
52441;BME280;39611;46.062;8.950;2023-04-07T06:09:32;96320.72;;;6.56;56.94
52441;BME280;39611;46.062;8.950;2023-04-07T06:11:59;96327.50;;;6.52;54.96
52441;BME280;39611;46.062;8.950;2023-04-07T06:14:30;96328.84;;;6.55;54.68
52441;BME280;39611;46.062;8.950;2023-04-07T06:16:56;96334.22;;;6.70;53.93
52441;BME280;39611;46.062;8.950;2023-04-07T06:19:23;96330.53;;;6.71;53.01
52441;BME280;39611;46.062;8.950;2023-04-07T06:21:49;96331.66;;;6.81;54.61
52441;BME280;39611;46.062;8.950;2023-04-07T06:24:15;96325.94;;;6.89;52.57
52441;BME280;39611;46.062;8.950;2023-04-07T06:26:43;96330.16;;;6.90;55.85
52441;BME280;39611;46.062;8.950;2023-04-07T06:29:10;96327.34;;;7.02;54.62
52441;BME280;39611;46.062;8.950;2023-04-07T06:31:36;96330.25;;;7.05;54.89
52441;BME280;39611;46.062;8.950;2023-04-07T06:34:03;96326.88;;;7.10;54.37
52441;BME280;39611;46.062;8.950;2023-04-07T06:36:29;96324.00;;;7.11;53.80
52441;BME280;39611;46.062;8.950;2023-04-07T06:38:56;96324.09;;;7.27;52.24
52441;BME280;39611;46.062;8.950;2023-04-07T06:41:22;96328.50;;;7.21;53.07
52441;BME280;39611;46.062;8.950;2023-04-07T06:43:49;96318.56;;;7.28;52.57
52441;BME280;39611;46.062;8.950;2023-04-07T06:46:19;96321.19;;;7.28;52.14
52441;BME280;39611;46.062;8.950;2023-04-07T06:48:45;96324.34;;;7.30;52.93
52441;BME280;39611;46.062;8.950;2023-04-07T06:51:12;96326.25;;;7.40;53.15
52441;BME280;39611;46.062;8.950;2023-04-07T06:53:39;96319.97;;;7.46;53.24
52441;BME280;39611;46.062;8.950;2023-04-07T06:56:08;96309.97;;;7.48;50.06
52441;BME280;39611;46.062;8.950;2023-04-07T06:58:36;96318.94;;;7.47;49.36
52441;BME280;39611;46.062;8.950;2023-04-07T07:01:03;96311.53;;;7.49;48.91
52441;BME280;39611;46.062;8.950;2023-04-07T07:03:31;96318.19;;;7.62;50.25
52441;BME280;39611;46.062;8.950;2023-04-07T07:05:58;96314.53;;;7.68;49.47
52441;BME280;39611;46.062;8.950;2023-04-07T07:08:25;96323.78;;;7.76;48.45
52441;BME280;39611;46.062;8.950;2023-04-07T07:10:52;96325.66;;;7.91;48.60
52441;BME280;39611;46.062;8.950;2023-04-07T07:13:22;96315.16;;;8.01;48.33
52441;BME280;39611;46.062;8.950;2023-04-07T07:15:49;96324.91;;;8.10;47.13
52441;BME280;39611;46.062;8.950;2023-04-07T07:18:16;96311.25;;;8.24;48.19
52441;BME280;39611;46.062;8.950;2023-04-07T07:20:44;96314.97;;;8.33;47.45
52441;BME280;39611;46.062;8.950;2023-04-07T07:23:11;96310.47;;;8.39;46.75
52441;BME280;39611;46.062;8.950;2023-04-07T07:25:37;96309.69;;;8.38;46.72
52441;BME280;39611;46.062;8.950;2023-04-07T07:28:04;96303.41;;;8.49;46.18
52441;BME280;39611;46.062;8.950;2023-04-07T07:30:30;96306.81;;;8.60;46.01
52441;BME280;39611;46.062;8.950;2023-04-07T07:32:57;96299.16;;;8.69;47.73
52441;BME280;39611;46.062;8.950;2023-04-07T07:35:23;96308.66;;;8.75;45.58
52441;BME280;39611;46.062;8.950;2023-04-07T07:37:50;96301.78;;;8.79;45.38
52441;BME280;39611;46.062;8.950;2023-04-07T07:40:17;96301.53;;;8.81;45.51
52441;BME280;39611;46.062;8.950;2023-04-07T07:42:44;96298.13;;;8.85;44.92
52441;BME280;39611;46.062;8.950;2023-04-07T07:45:11;96293.09;;;8.89;44.96
52441;BME280;39611;46.062;8.950;2023-04-07T07:47:39;96283.31;;;8.94;44.77
52441;BME280;39611;46.062;8.950;2023-04-07T07:50:06;96282.75;;;9.03;44.23
52441;BME280;39611;46.062;8.950;2023-04-07T07:52:32;96280.38;;;9.11;44.38
52441;BME280;39611;46.062;8.950;2023-04-07T07:54:59;96276.13;;;9.21;44.82
52441;BME280;39611;46.062;8.950;2023-04-07T07:57:25;96280.34;;;9.27;44.50
52441;BME280;39611;46.062;8.950;2023-04-07T07:59:52;96275.06;;;9.32;44.34
52441;BME280;39611;46.062;8.950;2023-04-07T08:02:18;96270.50;;;9.48;44.01
52441;BME280;39611;46.062;8.950;2023-04-07T08:04:45;96272.59;;;9.56;42.49
52441;BME280;39611;46.062;8.950;2023-04-07T08:07:11;96281.81;;;9.58;41.27
52441;BME280;39611;46.062;8.950;2023-04-07T08:09:38;96276.25;;;9.65;42.68
52441;BME280;39611;46.062;8.950;2023-04-07T08:12:04;96278.25;;;9.89;43.67
52441;BME280;39611;46.062;8.950;2023-04-07T08:14:31;96277.97;;;9.85;41.43
52441;BME280;39611;46.062;8.950;2023-04-07T08:16:57;96277.41;;;9.93;42.55
52441;BME280;39611;46.062;8.950;2023-04-07T08:19:24;96280.50;;;10.05;42.26
52441;BME280;39611;46.062;8.950;2023-04-07T08:21:50;96279.88;;;10.24;43.04
52441;BME280;39611;46.062;8.950;2023-04-07T08:24:17;96287.22;;;10.32;43.06
52441;BME280;39611;46.062;8.950;2023-04-07T08:26:43;96289.53;;;10.44;42.04
52441;BME280;39611;46.062;8.950;2023-04-07T08:29:11;96290.81;;;10.52;39.97
52441;BME280;39611;46.062;8.950;2023-04-07T08:31:37;96296.66;;;10.48;41.14
52441;BME280;39611;46.062;8.950;2023-04-07T08:34:04;96304.28;;;10.50;40.73
52441;BME280;39611;46.062;8.950;2023-04-07T08:36:30;96299.56;;;10.47;40.55
52441;BME280;39611;46.062;8.950;2023-04-07T08:38:57;96308.06;;;10.44;41.79
52441;BME280;39611;46.062;8.950;2023-04-07T08:41:36;96305.16;;;10.45;41.68
52441;BME280;39611;46.062;8.950;2023-04-07T08:44:05;96305.16;;;10.45;41.09
52441;BME280;39611;46.062;8.950;2023-04-07T08:46:32;96306.19;;;10.44;41.87
52441;BME280;39611;46.062;8.950;2023-04-07T08:49:00;96316.22;;;10.47;42.15
52441;BME280;39611;46.062;8.950;2023-04-07T08:51:31;96314.88;;;10.50;41.41
52441;BME280;39611;46.062;8.950;2023-04-07T08:54:09;96315.13;;;10.54;40.21
52441;BME280;39611;46.062;8.950;2023-04-07T08:56:37;96316.13;;;10.58;40.92
52441;BME280;39611;46.062;8.950;2023-04-07T08:59:07;96318.47;;;10.64;40.64
52441;BME280;39611;46.062;8.950;2023-04-07T09:01:34;96315.50;;;10.71;40.17
52441;BME280;39611;46.062;8.950;2023-04-07T09:04:03;96323.69;;;10.75;40.87
52441;BME280;39611;46.062;8.950;2023-04-07T09:06:30;96317.94;;;10.67;40.56
52441;BME280;39611;46.062;8.950;2023-04-07T09:08:57;96315.25;;;10.73;40.07
52441;BME280;39611;46.062;8.950;2023-04-07T09:11:25;96315.28;;;10.67;39.54
52441;BME280;39611;46.062;8.950;2023-04-07T09:13:53;96315.75;;;10.75;39.48
52441;BME280;39611;46.062;8.950;2023-04-07T09:16:20;96311.72;;;10.82;39.68
52441;BME280;39611;46.062;8.950;2023-04-07T09:18:46;96312.97;;;10.90;39.82
52441;BME280;39611;46.062;8.950;2023-04-07T09:21:13;96309.25;;;10.91;38.49
52441;BME280;39611;46.062;8.950;2023-04-07T09:23:41;96314.88;;;10.84;38.73
52441;BME280;39611;46.062;8.950;2023-04-07T09:28:45;96312.38;;;10.98;40.11
52441;BME280;39611;46.062;8.950;2023-04-07T09:31:12;96316.06;;;10.97;39.05
52441;BME280;39611;46.062;8.950;2023-04-07T09:33:39;96319.28;;;10.94;39.01
52441;BME280;39611;46.062;8.950;2023-04-07T09:36:06;96318.22;;;10.95;39.70
52441;BME280;39611;46.062;8.950;2023-04-07T09:38:34;96318.22;;;10.95;39.85
52441;BME280;39611;46.062;8.950;2023-04-07T09:41:19;96311.53;;;11.03;39.43
52441;BME280;39611;46.062;8.950;2023-04-07T09:43:46;96313.44;;;10.97;40.53
52441;BME280;39611;46.062;8.950;2023-04-07T09:46:14;96314.97;;;11.03;40.84
52441;BME280;39611;46.062;8.950;2023-04-07T09:48:43;96315.16;;;11.12;39.76
52441;BME280;39611;46.062;8.950;2023-04-07T09:51:14;96317.84;;;11.07;39.87
52441;BME280;39611;46.062;8.950;2023-04-07T09:53:49;96322.13;;;11.03;40.78
52441;BME280;39611;46.062;8.950;2023-04-07T09:56:20;96315.28;;;10.97;41.41
52441;BME280;39611;46.062;8.950;2023-04-07T09:58:50;96320.38;;;10.93;41.57
52441;BME280;39611;46.062;8.950;2023-04-07T10:01:20;96314.56;;;10.91;41.61
52441;BME280;39611;46.062;8.950;2023-04-07T10:03:47;96314.88;;;10.84;41.49
52441;BME280;39611;46.062;8.950;2023-04-07T10:06:16;96311.44;;;10.84;40.38
52441;BME280;39611;46.062;8.950;2023-04-07T10:08:43;96312.41;;;10.93;39.98
52441;BME280;39611;46.062;8.950;2023-04-07T10:11:09;96319.25;;;10.99;41.75
52441;BME280;39611;46.062;8.950;2023-04-07T10:13:38;96310.72;;;11.02;39.89
52441;BME280;39611;46.062;8.950;2023-04-07T10:16:06;96301.28;;;10.96;39.84
52441;BME280;39611;46.062;8.950;2023-04-07T10:18:34;96307.03;;;11.03;40.57
52441;BME280;39611;46.062;8.950;2023-04-07T10:21:03;96308.03;;;11.07;40.05
52441;BME280;39611;46.062;8.950;2023-04-07T10:23:43;96303.97;;;10.91;39.29
52441;BME280;39611;46.062;8.950;2023-04-07T10:26:17;96306.00;;;10.99;39.75
52441;BME280;39611;46.062;8.950;2023-04-07T10:28:47;96300.41;;;11.06;41.10
52441;BME280;39611;46.062;8.950;2023-04-07T10:31:16;96303.31;;;11.04;40.36
52441;BME280;39611;46.062;8.950;2023-04-07T10:33:48;96294.31;;;11.05;40.14
52441;BME280;39611;46.062;8.950;2023-04-07T10:36:17;96289.47;;;11.12;40.31
52441;BME280;39611;46.062;8.950;2023-04-07T10:41:40;96287.91;;;11.11;40.04
52441;BME280;39611;46.062;8.950;2023-04-07T10:47:08;96296.81;;;11.21;39.71
52441;BME280;39611;46.062;8.950;2023-04-07T10:49:35;96288.00;;;11.25;40.93
52441;BME280;39611;46.062;8.950;2023-04-07T10:54:40;96286.84;;;11.36;40.65
52441;BME280;39611;46.062;8.950;2023-04-07T10:57:08;96293.97;;;11.36;41.20
52441;BME280;39611;46.062;8.950;2023-04-07T10:59:42;96286.09;;;11.31;39.65
52441;BME280;39611;46.062;8.950;2023-04-07T11:04:53;96276.75;;;11.14;39.28
52441;BME280;39611;46.062;8.950;2023-04-07T11:07:43;96279.91;;;11.17;39.93
52441;BME280;39611;46.062;8.950;2023-04-07T11:10:11;96276.69;;;11.20;39.07
52441;BME280;39611;46.062;8.950;2023-04-07T11:12:38;96275.06;;;11.24;40.83
52441;BME280;39611;46.062;8.950;2023-04-07T11:15:21;96276.06;;;11.28;41.50
52441;BME280;39611;46.062;8.950;2023-04-07T11:20:40;96273.59;;;11.36;40.36
52441;BME280;39611;46.062;8.950;2023-04-07T11:23:10;96269.19;;;11.27;39.81
52441;BME280;39611;46.062;8.950;2023-04-07T11:25:37;96273.38;;;11.33;40.48
52441;BME280;39611;46.062;8.950;2023-04-07T11:28:04;96268.63;;;11.30;39.74
52441;BME280;39611;46.062;8.950;2023-04-07T11:30:31;96263.78;;;11.37;40.13
52441;BME280;39611;46.062;8.950;2023-04-07T11:32:57;96274.09;;;11.38;39.59
52441;BME280;39611;46.062;8.950;2023-04-07T11:35:24;96267.75;;;11.40;39.49
52441;BME280;39611;46.062;8.950;2023-04-07T11:37:56;96258.94;;;11.44;39.67
52441;BME280;39611;46.062;8.950;2023-04-07T11:40:31;96263.44;;;11.44;39.42
52441;BME280;39611;46.062;8.950;2023-04-07T11:43:13;96265.47;;;11.52;38.98
52441;BME280;39611;46.062;8.950;2023-04-07T11:45:40;96263.38;;;11.73;39.81
52441;BME280;39611;46.062;8.950;2023-04-07T11:48:29;96262.84;;;11.71;38.62
52441;BME280;39611;46.062;8.950;2023-04-07T11:50:56;96263.31;;;11.78;38.53
52441;BME280;39611;46.062;8.950;2023-04-07T11:53:29;96264.25;;;11.87;38.12
52441;BME280;39611;46.062;8.950;2023-04-07T11:56:02;96258.00;;;11.78;36.42
52441;BME280;39611;46.062;8.950;2023-04-07T11:58:29;96255.19;;;11.69;37.09
52441;BME280;39611;46.062;8.950;2023-04-07T12:01:01;96253.94;;;11.62;36.78
52441;BME280;39611;46.062;8.950;2023-04-07T12:03:32;96260.13;;;11.76;36.79
52441;BME280;39611;46.062;8.950;2023-04-07T12:06:00;96250.41;;;11.90;38.50
52441;BME280;39611;46.062;8.950;2023-04-07T12:08:38;96249.78;;;11.98;38.33
52441;BME280;39611;46.062;8.950;2023-04-07T12:11:05;96254.44;;;12.07;38.24
52441;BME280;39611;46.062;8.950;2023-04-07T12:13:34;96251.72;;;12.12;37.92
52441;BME280;39611;46.062;8.950;2023-04-07T12:16:00;96248.78;;;12.13;37.59
52441;BME280;39611;46.062;8.950;2023-04-07T12:18:27;96248.19;;;12.16;37.01
52441;BME280;39611;46.062;8.950;2023-04-07T12:20:54;96238.41;;;12.17;36.44
52441;BME280;39611;46.062;8.950;2023-04-07T12:23:21;96242.09;;;12.16;36.13
52441;BME280;39611;46.062;8.950;2023-04-07T12:25:47;96231.72;;;12.19;36.71
52441;BME280;39611;46.062;8.950;2023-04-07T12:28:14;96233.91;;;12.31;37.46
52441;BME280;39611;46.062;8.950;2023-04-07T12:30:40;96227.44;;;12.37;36.56
52441;BME280;39611;46.062;8.950;2023-04-07T12:33:07;96225.81;;;12.41;36.60
52441;BME280;39611;46.062;8.950;2023-04-07T12:35:33;96220.91;;;12.49;36.82
52441;BME280;39611;46.062;8.950;2023-04-07T12:38:00;96216.31;;;12.54;36.55
52441;BME280;39611;46.062;8.950;2023-04-07T12:40:28;96211.03;;;12.68;36.75
52441;BME280;39611;46.062;8.950;2023-04-07T12:42:54;96210.84;;;12.64;35.74
52441;BME280;39611;46.062;8.950;2023-04-07T12:45:23;96209.13;;;12.55;35.35
52441;BME280;39611;46.062;8.950;2023-04-07T12:47:50;96207.66;;;12.49;36.17
52441;BME280;39611;46.062;8.950;2023-04-07T12:50:16;96205.59;;;12.45;35.72
52441;BME280;39611;46.062;8.950;2023-04-07T12:52:43;96207.16;;;12.46;36.34
52441;BME280;39611;46.062;8.950;2023-04-07T12:55:10;96198.78;;;12.39;35.98
52441;BME280;39611;46.062;8.950;2023-04-07T12:57:36;96200.94;;;12.37;35.79
52441;BME280;39611;46.062;8.950;2023-04-07T13:00:04;96193.97;;;12.41;36.24
52441;BME280;39611;46.062;8.950;2023-04-07T13:02:31;96186.41;;;12.35;36.26
52441;BME280;39611;46.062;8.950;2023-04-07T13:04:58;96187.66;;;12.37;36.69
52441;BME280;39611;46.062;8.950;2023-04-07T13:07:24;96175.81;;;12.35;36.22
52441;BME280;39611;46.062;8.950;2023-04-07T13:09:50;96179.31;;;12.30;36.53
52441;BME280;39611;46.062;8.950;2023-04-07T13:12:17;96176.75;;;12.25;36.87
52441;BME280;39611;46.062;8.950;2023-04-07T13:14:43;96168.47;;;12.27;36.55
52441;BME280;39611;46.062;8.950;2023-04-07T13:17:24;96160.84;;;12.25;36.62
52441;BME280;39611;46.062;8.950;2023-04-07T13:19:51;96159.28;;;12.38;36.94
52441;BME280;39611;46.062;8.950;2023-04-07T13:22:17;96152.91;;;12.39;37.17
52441;BME280;39611;46.062;8.950;2023-04-07T13:24:49;96148.88;;;12.41;36.55
52441;BME280;39611;46.062;8.950;2023-04-07T13:27:15;96146.72;;;12.43;36.69
52441;BME280;39611;46.062;8.950;2023-04-07T13:29:42;96154.38;;;12.45;36.45